createdAt,value
2016-03-19T00:00:36.642Z,88.95
2016-03-19T00:01:36.629Z,88.86
2016-03-19T00:02:30.381Z,89.43
2016-03-19T00:03:30.431Z,89.33
2016-03-19T00:04:30.434Z,89.33
2016-03-19T00:05:30.467Z,89.33
2016-03-19T00:06:30.470Z,88.86
2016-03-19T00:07:30.535Z,88.95
2016-03-19T00:08:30.507Z,88.95
2016-03-19T00:09:43.260Z,88.95
2016-03-19T00:10:30.528Z,88.67
2016-03-19T00:11:30.561Z,89.05
2016-03-19T00:12:30.564Z,89.14
2016-03-19T00:13:31.192Z,89.05
2016-03-19T00:14:36.866Z,88.95
2016-03-19T00:15:30.619Z,88.67
2016-03-19T00:16:30.638Z,88.95
2016-03-19T00:17:30.671Z,89.33
2016-03-19T00:18:30.769Z,88.86
2016-03-19T00:19:30.708Z,89.14
2016-03-19T00:20:30.743Z,89.05
2016-03-19T00:21:30.729Z,89.33
2016-03-19T00:22:30.748Z,89.24
2016-03-19T00:23:30.751Z,89.53
2016-03-19T00:24:30.785Z,89.53
2016-03-19T00:25:30.787Z,89.53
2016-03-19T00:26:30.806Z,89.33
2016-03-19T00:27:30.824Z,89.43
2016-03-19T00:28:30.857Z,89.33
2016-03-19T00:29:30.845Z,89.58
2016-03-19T00:30:43.613Z,89.24
2016-03-19T00:31:43.679Z,89.58
2016-03-19T00:32:56.572Z,89.24
2016-03-19T00:33:56.606Z,89.24
2016-03-19T00:34:30.921Z,89.1
2016-03-19T00:35:31.033Z,89.58
2016-03-19T00:36:30.989Z,89.24
2016-03-19T00:37:37.241Z,89.05
2016-03-19T00:38:37.323Z,89.62
2016-03-19T00:39:31.028Z,89.72
2016-03-19T00:40:31.047Z,90.09
2016-03-19T00:41:31.049Z,89.48
2016-03-19T00:42:37.333Z,89.29
2016-03-19T00:43:43.804Z,89.1
2016-03-19T00:44:31.120Z,89.14
2016-03-19T00:45:56.795Z,89.29
2016-03-19T00:46:31.328Z,89
2016-03-19T00:47:31.159Z,89.29
2016-03-19T00:48:31.427Z,89
2016-03-19T00:49:31.227Z,89.24
2016-03-19T00:50:37.464Z,89
2016-03-19T00:51:31.217Z,89.53
2016-03-19T00:52:43.985Z,89.53
2016-03-19T00:53:31.269Z,90.05
2016-03-19T00:54:31.288Z,90.28
2016-03-19T00:55:31.290Z,89.81
2016-03-19T00:56:31.308Z,89.53
2016-03-19T00:57:31.327Z,89.72
2016-03-19T00:58:31.345Z,89.72
2016-03-19T00:59:37.629Z,89.72
2016-03-19T01:00:31.382Z,89.24
2016-03-19T01:01:44.134Z,89.43
2016-03-19T01:02:31.418Z,89.62
2016-03-19T01:03:31.498Z,89.62
2016-03-19T01:04:31.455Z,89.43
2016-03-19T01:05:31.473Z,90.38
2016-03-19T01:06:31.492Z,89.95
2016-03-19T01:07:31.495Z,90.05
2016-03-19T01:08:31.503Z,89.86
2016-03-19T01:09:31.512Z,90.19
2016-03-19T01:10:31.522Z,89.95
2016-03-19T01:11:31.515Z,90.24
2016-03-19T01:12:31.601Z,90.43
2016-03-19T01:13:31.537Z,90.62
2016-03-19T01:14:31.645Z,90.52
2016-03-19T01:15:37.880Z,90.52
2016-03-19T01:16:31.597Z,90.62
2016-03-19T01:17:31.596Z,90.33
2016-03-19T01:18:31.613Z,90.71
2016-03-19T01:19:44.381Z,90.14
2016-03-19T01:20:31.647Z,90.24
2016-03-19T01:21:31.680Z,89.95
2016-03-19T01:22:31.667Z,89.95
2016-03-19T01:23:37.966Z,90.05
2016-03-19T01:24:31.718Z,89.86
2016-03-19T01:25:50.924Z,89.95
2016-03-19T01:26:31.738Z,89.86
2016-03-19T01:27:57.428Z,90.43
2016-03-19T01:28:31.775Z,90.52
2016-03-19T01:29:31.887Z,91.38
2016-03-19T01:30:31.796Z,90.52
2016-03-19T01:31:31.829Z,90.71
2016-03-19T01:32:31.831Z,90.33
2016-03-19T01:33:31.850Z,90.43
2016-03-19T01:34:31.884Z,91
2016-03-19T01:35:31.887Z,91.09
2016-03-19T01:36:44.656Z,91.56
2016-03-19T01:37:31.924Z,91.56
2016-03-19T01:38:51.255Z,90.43
2016-03-19T01:39:31.944Z,90.33
2016-03-19T01:40:32.572Z,91.09
2016-03-19T01:41:31.997Z,91.09
2016-03-19T01:42:31.999Z,90.9
2016-03-19T01:43:32.033Z,91.56
2016-03-19T01:44:32.035Z,90.43
2016-03-19T01:45:32.071Z,90.62
2016-03-19T01:46:32.088Z,90.9
2016-03-19T01:47:32.091Z,90.52
2016-03-19T01:48:32.110Z,90.43
2016-03-19T01:49:38.409Z,90.81
2016-03-19T01:50:32.146Z,90.33
2016-03-19T01:51:32.148Z,90.62
2016-03-19T01:52:32.168Z,90.43
2016-03-19T01:53:32.185Z,89.95
2016-03-19T01:54:32.188Z,89.86
2016-03-19T01:55:32.206Z,90.62
2016-03-19T01:56:44.975Z,90.43
2016-03-19T01:57:32.509Z,90.52
2016-03-19T01:58:32.261Z,90.33
2016-03-19T01:59:51.530Z,90.71
2016-03-19T02:00:32.501Z,90.71
2016-03-19T02:01:32.332Z,90.71
2016-03-19T02:02:32.334Z,90.43
2016-03-19T02:03:38.619Z,91.28
2016-03-19T02:04:38.653Z,90.62
2016-03-19T02:05:32.390Z,91
2016-03-19T02:06:32.252Z,91
2016-03-19T02:07:32.613Z,91
2016-03-19T02:08:32.429Z,91
2016-03-19T02:09:32.463Z,91.28
2016-03-19T02:10:32.513Z,90.9
2016-03-19T02:11:32.484Z,91
2016-03-19T02:12:32.518Z,90.9
2016-03-19T02:13:32.521Z,91.19
2016-03-19T02:14:32.538Z,91.56
2016-03-19T02:15:32.558Z,91.28
2016-03-19T02:16:32.575Z,91.38
2016-03-19T02:17:45.343Z,91.19
2016-03-19T02:18:32.612Z,91.09
2016-03-19T02:19:51.818Z,91.19
2016-03-19T02:20:32.617Z,90.9
2016-03-19T02:21:32.667Z,91.28
2016-03-19T02:22:38.935Z,91.09
2016-03-19T02:23:32.704Z,91.38
2016-03-19T02:24:45.440Z,91.19
2016-03-19T02:25:32.724Z,91
2016-03-19T02:26:32.743Z,91.09
2016-03-19T02:27:51.965Z,91.38
2016-03-19T02:28:39.029Z,91.56
2016-03-19T02:29:32.781Z,91.47
2016-03-19T02:30:32.816Z,91.38
2016-03-19T02:31:32.803Z,91.47
2016-03-19T02:32:32.837Z,91.75
2016-03-19T02:33:32.840Z,91.66
2016-03-19T02:34:32.859Z,91.19
2016-03-19T02:35:32.892Z,91.38
2016-03-19T02:36:32.957Z,91.94
2016-03-19T02:37:32.913Z,92.23
2016-03-19T02:38:32.947Z,92.23
2016-03-19T02:39:45.684Z,91.19
2016-03-19T02:40:32.952Z,91.19
2016-03-19T02:41:33.002Z,91.38
2016-03-19T02:42:33.614Z,91
2016-03-19T02:43:33.023Z,91
2016-03-19T02:44:45.775Z,91.85
2016-03-19T02:45:33.060Z,91.66
2016-03-19T02:46:33.078Z,92.23
2016-03-19T02:47:33.080Z,91.38
2016-03-19T02:48:33.099Z,91.66
2016-03-19T02:49:33.196Z,91.94
2016-03-19T02:50:45.871Z,92.14
2016-03-19T02:51:33.154Z,91.85
2016-03-19T02:52:33.171Z,92.04
2016-03-19T02:53:45.284Z,92.04
2016-03-19T02:54:33.193Z,91.56
2016-03-19T02:55:33.227Z,91.28
2016-03-19T02:56:33.229Z,91.94
2016-03-19T02:57:33.248Z,91.66
2016-03-19T02:58:33.282Z,92.04
2016-03-19T02:59:33.284Z,92.04
2016-03-19T03:00:33.288Z,92.04
2016-03-19T03:01:33.290Z,91.66
2016-03-19T03:02:59.012Z,91.56
2016-03-19T03:03:42.905Z,92.42
2016-03-19T03:04:42.923Z,92.61
2016-03-19T03:05:42.957Z,92.42
2016-03-19T03:06:42.975Z,92.9
2016-03-19T03:07:42.962Z,92.9
2016-03-19T03:08:55.747Z,92.33
2016-03-19T03:09:42.999Z,92.33
2016-03-19T03:11:02.236Z,92.52
2016-03-19T03:11:43.052Z,92.71
2016-03-19T03:12:43.055Z,92.42
2016-03-19T03:13:43.072Z,92.42
2016-03-19T03:14:43.684Z,92.52
2016-03-19T03:15:43.108Z,93.08
2016-03-19T03:16:43.127Z,93.08
2016-03-19T03:17:43.130Z,92.99
2016-03-19T03:18:43.148Z,93.18
2016-03-19T03:19:43.167Z,93.08
2016-03-19T03:20:43.185Z,92.99
2016-03-19T03:21:43.203Z,93.61
2016-03-19T03:22:43.206Z,93.65
2016-03-19T03:23:43.380Z,93.65
2016-03-19T03:24:43.258Z,93.46
2016-03-19T03:25:55.995Z,93.65
2016-03-19T03:27:14.623Z,93.75
2016-03-19T03:27:43.313Z,93.8
2016-03-19T03:28:43.331Z,93.75
2016-03-19T03:29:43.334Z,93.41
2016-03-19T03:30:43.337Z,93.41
2016-03-19T03:32:09.043Z,93.8
2016-03-19T03:32:43.390Z,93.41
2016-03-19T03:33:43.392Z,94.27
2016-03-19T03:34:43.426Z,94.27
2016-03-19T03:36:14.725Z,94.08
2016-03-19T03:36:43.478Z,94.46
2016-03-19T03:37:43.465Z,93.99
2016-03-19T03:38:43.531Z,94.27
2016-03-19T03:39:43.502Z,94.74
2016-03-19T03:40:43.520Z,94.46
2016-03-19T03:41:43.742Z,94.65
2016-03-19T03:42:43.557Z,94.84
2016-03-19T03:43:43.559Z,95.03
2016-03-19T03:44:43.593Z,94.46
2016-03-19T03:45:43.580Z,94.46
2016-03-19T03:46:43.614Z,94.46
2016-03-19T03:47:43.648Z,95.03
2016-03-19T03:48:43.651Z,94.93
2016-03-19T03:49:43.699Z,94.74
2016-03-19T03:50:56.407Z,94.74
2016-03-19T03:51:43.690Z,94.74
2016-03-19T03:52:43.708Z,95.12
2016-03-19T03:53:43.586Z,94.37
2016-03-19T03:54:43.745Z,94.46
2016-03-19T03:55:43.763Z,94.84
2016-03-19T03:56:43.781Z,94.65
2016-03-19T03:57:43.785Z,93.99
2016-03-19T03:58:50.099Z,94.37
2016-03-19T03:59:43.820Z,94.18
2016-03-19T04:00:43.917Z,94.08
2016-03-19T04:01:43.857Z,94.18
2016-03-19T04:02:43.860Z,93.99
2016-03-19T04:03:46.956Z,94.56
2016-03-19T04:04:46.960Z,94.74
2016-03-19T04:05:48.384Z,94.46
2016-03-19T04:06:59.730Z,94.65
2016-03-19T04:07:47.030Z,94.46
2016-03-19T04:09:06.220Z,94.37
2016-03-19T04:09:48.473Z,93.8
2016-03-19T04:10:47.069Z,93.99
2016-03-19T04:11:47.072Z,94.65
2016-03-19T04:12:47.105Z,94.74
2016-03-19T04:13:47.125Z,94.65
2016-03-19T04:14:53.408Z,94.46
2016-03-19T04:15:47.145Z,94.65
2016-03-19T04:16:59.898Z,94.74
2016-03-19T04:17:47.182Z,94.65
2016-03-19T04:18:47.200Z,94.56
2016-03-19T04:19:59.969Z,94.65
2016-03-19T04:20:47.222Z,95.12
2016-03-19T04:21:47.224Z,94.93
2016-03-19T04:22:47.257Z,94.37
2016-03-19T04:23:47.276Z,95.03
2016-03-19T04:24:47.279Z,94.84
2016-03-19T04:25:47.921Z,94.65
2016-03-19T04:26:47.332Z,95.03
2016-03-19T04:28:00.052Z,95.12
2016-03-19T04:28:47.352Z,95.31
2016-03-19T04:29:47.370Z,95.31
2016-03-19T04:30:47.389Z,95.12
2016-03-19T04:31:47.392Z,94.93
2016-03-19T04:32:47.425Z,94.84
2016-03-19T04:33:48.053Z,95.12
2016-03-19T04:34:47.352Z,95.22
2016-03-19T04:35:47.481Z,95.31
2016-03-19T04:37:00.217Z,95.79
2016-03-19T04:37:47.501Z,95.98
2016-03-19T04:39:13.207Z,96.45
2016-03-19T04:40:00.288Z,96.31
2016-03-19T04:42:06.777Z,96.5
2016-03-19T04:42:47.578Z,96.31
2016-03-19T04:43:47.595Z,96.64
2016-03-19T04:44:47.598Z,96.12
2016-03-19T04:45:53.882Z,96.31
2016-03-19T04:46:47.650Z,96.41
2016-03-19T04:47:53.935Z,95.98
2016-03-19T04:48:47.687Z,95.79
2016-03-19T04:49:47.706Z,96.17
2016-03-19T04:50:47.724Z,95.88
2016-03-19T04:51:47.711Z,95.98
2016-03-19T04:52:47.744Z,96.08
2016-03-19T04:53:47.779Z,95.88
2016-03-19T04:54:47.969Z,96.36
2016-03-19T04:55:47.815Z,96.31
2016-03-19T04:56:47.818Z,96.78
2016-03-19T04:57:47.821Z,96.78
2016-03-19T04:59:00.620Z,97.26
2016-03-19T04:59:47.857Z,97.64
2016-03-19T05:01:07.063Z,97.26
2016-03-19T05:01:47.879Z,97.35
2016-03-19T05:02:47.913Z,97.07
2016-03-19T05:04:00.649Z,97.45
2016-03-19T05:04:47.933Z,97.26
2016-03-19T05:06:07.187Z,97.54
2016-03-19T05:06:51.064Z,97.35
2016-03-19T05:07:51.097Z,96.88
2016-03-19T05:09:03.850Z,97.07
2016-03-19T05:10:10.322Z,96.88
2016-03-19T05:10:51.153Z,97.16
2016-03-19T05:11:50.545Z,97.07
2016-03-19T05:12:51.159Z,96.88
2016-03-19T05:13:51.192Z,96.5
2016-03-19T05:14:51.195Z,96.69
2016-03-19T05:15:57.494Z,96.88
2016-03-19T05:16:51.216Z,96.78
2016-03-19T05:18:03.968Z,96.31
2016-03-19T05:18:52.674Z,96.59
2016-03-19T05:20:04.020Z,96.31
2016-03-19T05:20:51.383Z,96.31
2016-03-19T05:22:16.979Z,96.5
2016-03-19T05:22:51.372Z,96.41
2016-03-19T05:23:51.327Z,96.12
2016-03-19T05:24:51.394Z,96.59
2016-03-19T05:25:51.365Z,96.5
2016-03-19T05:27:04.117Z,96.88
2016-03-19T05:27:51.996Z,96.31
2016-03-19T05:29:10.623Z,96.59
2016-03-19T05:29:51.423Z,96.5
2016-03-19T05:31:17.112Z,96.5
2016-03-19T05:32:04.193Z,96.41
2016-03-19T05:33:17.165Z,96.5
2016-03-19T05:33:51.495Z,96.69
2016-03-19T05:35:17.171Z,96.97
2016-03-19T05:35:51.548Z,96.31
2016-03-19T05:36:51.551Z,96.59
2016-03-19T05:38:01.225Z,96.22
2016-03-19T05:39:01.118Z,96.12
2016-03-19T05:40:07.543Z,96.03
2016-03-19T05:41:07.436Z,96.12
2016-03-19T05:42:01.283Z,96.41
2016-03-19T05:43:13.941Z,96.5
2016-03-19T05:44:01.273Z,96.88
2016-03-19T05:45:14.166Z,96.5
2016-03-19T05:46:01.247Z,96.59
2016-03-19T05:47:20.469Z,96.88
2016-03-19T05:48:04.502Z,96.31
2016-03-19T05:49:04.536Z,96.31
2016-03-19T05:50:05.163Z,96.12
2016-03-19T05:51:04.573Z,96.41
2016-03-19T05:52:04.560Z,96.31
2016-03-19T05:53:04.594Z,96.31
2016-03-19T05:54:04.627Z,96.5
2016-03-19T05:55:05.333Z,96.41
2016-03-19T05:56:30.307Z,96.31
2016-03-19T05:57:04.666Z,96.41
2016-03-19T05:58:04.685Z,96.03
2016-03-19T05:59:30.363Z,96.03
2016-03-19T06:00:04.707Z,95.45
2016-03-19T06:02:19.914Z,95.84
2016-03-19T06:03:19.949Z,95.84
2016-03-19T06:04:26.235Z,95.93
2016-03-19T06:05:20.188Z,94.89
2016-03-19T06:06:19.987Z,95.17
2016-03-19T06:07:26.259Z,95.07
2016-03-19T06:08:26.277Z,95.12
2016-03-19T06:09:20.011Z,94.84
2016-03-19T06:10:20.077Z,94.93
2016-03-19T06:11:20.064Z,94.74
2016-03-19T06:12:39.304Z,93.99
2016-03-19T06:13:20.101Z,94.37
2016-03-19T06:14:45.794Z,93.41
2016-03-19T06:15:28.936Z,93.13
2016-03-19T06:16:28.939Z,92.66
2016-03-19T06:17:29.255Z,91.05
2016-03-19T06:18:32.350Z,90.05
2016-03-19T06:19:32.369Z,89.67
2016-03-19T06:20:45.122Z,89
2016-03-19T06:21:45.125Z,89.39
2016-03-19T06:22:32.408Z,88.81
2016-03-19T06:23:35.552Z,88.72
2016-03-19T06:24:35.554Z,86.77
2016-03-19T06:25:35.574Z,84.87
2016-03-19T06:26:35.591Z,83.97
2016-03-19T06:27:35.671Z,82.64
2016-03-19T06:28:35.612Z,82.82
2016-03-19T06:29:35.630Z,82.64
2016-03-19T06:30:35.652Z,83.59
2016-03-19T06:31:35.670Z,82.92
2016-03-19T06:32:35.688Z,80.87
2016-03-19T06:33:35.707Z,78.63
2016-03-19T06:34:35.725Z,77.11
2016-03-19T06:35:35.743Z,75.62
2016-03-19T06:36:35.762Z,75.91
2016-03-19T06:37:35.795Z,76.48
2016-03-19T06:38:35.782Z,77.3
2016-03-19T06:39:35.800Z,78.44
2016-03-19T06:40:35.820Z,78.72
2016-03-19T06:41:35.837Z,79.54
2016-03-19T06:42:36.465Z,79.44
2016-03-19T06:43:35.875Z,79.73
2016-03-19T06:44:35.908Z,79.63
2016-03-19T06:45:35.895Z,79.44
2016-03-19T06:46:35.944Z,79.35
2016-03-19T06:47:35.948Z,79.44
2016-03-19T06:48:35.966Z,79.44
2016-03-19T06:49:35.984Z,78.59
2016-03-19T06:50:36.002Z,76.25
2016-03-19T06:51:36.005Z,73.34
2016-03-19T06:52:48.789Z,70.62
2016-03-19T06:53:36.041Z,69.99
2016-03-19T06:54:36.060Z,70.18
2016-03-19T06:55:36.078Z,70.08
2016-03-19T06:56:36.112Z,70.37
2016-03-19T06:57:36.115Z,70.37
2016-03-19T06:58:36.133Z,70.56
2016-03-19T06:59:36.199Z,69.6
2016-03-19T07:00:36.185Z,66.88
2016-03-19T07:01:36.219Z,63.6
2016-03-19T07:02:36.237Z,62.75
2016-03-19T07:03:36.241Z,62.75
2016-03-19T07:04:36.259Z,63.23
2016-03-19T07:05:36.277Z,64.05
2016-03-19T07:06:36.312Z,65.29
2016-03-19T07:07:36.314Z,66.11
2016-03-19T07:08:36.332Z,67.03
2016-03-19T07:09:36.366Z,67.99
2016-03-19T07:10:36.368Z,68.27
2016-03-19T07:11:36.606Z,68.75
2016-03-19T07:12:36.498Z,69.32
2016-03-19T07:13:36.408Z,69.7
2016-03-19T07:14:36.442Z,70.24
2016-03-19T07:15:36.460Z,71.09
2016-03-19T07:16:36.495Z,71.86
2016-03-19T07:17:36.512Z,72.24
2016-03-19T07:18:36.531Z,72.11
2016-03-19T07:19:36.549Z,72.3
2016-03-19T07:20:36.552Z,73.63
2016-03-19T07:21:36.602Z,74.73
2016-03-19T07:22:36.605Z,74.63
2016-03-19T07:23:36.622Z,74.77
2016-03-19T07:24:36.625Z,74.87
2016-03-19T07:25:36.644Z,74.58
2016-03-19T07:26:36.661Z,74.2
2016-03-19T07:27:38.102Z,72.96
2016-03-19T07:28:36.699Z,73.34
2016-03-19T07:29:37.342Z,73.63
2016-03-19T07:30:36.766Z,73.15
2016-03-19T07:31:36.769Z,73.25
2016-03-19T07:32:36.803Z,72.58
2016-03-19T07:33:36.821Z,72.49
2016-03-19T07:34:49.558Z,72.77
2016-03-19T07:35:36.843Z,73.15
2016-03-19T07:36:36.892Z,72.86
2016-03-19T07:37:36.895Z,72.49
2016-03-19T07:38:36.898Z,72.58
2016-03-19T07:39:36.900Z,74.01
2016-03-19T07:40:36.934Z,74.73
2016-03-19T07:41:36.951Z,75.21
2016-03-19T07:42:36.987Z,75.87
2016-03-19T07:43:37.004Z,75.4
2016-03-19T07:44:37.007Z,74.73
2016-03-19T07:45:37.041Z,73.82
2016-03-19T07:46:37.059Z,74.26
2016-03-19T07:47:37.078Z,74.73
2016-03-19T07:48:37.111Z,74.67
2016-03-19T07:49:37.114Z,73.34
2016-03-19T07:50:37.148Z,72.39
2016-03-19T07:51:37.261Z,72.49
2016-03-19T07:52:37.169Z,72.11
2016-03-19T07:53:37.203Z,72.3
2016-03-19T07:54:37.221Z,72.58
2016-03-19T07:55:37.224Z,72.24
2016-03-19T07:56:37.241Z,71.95
2016-03-19T07:57:37.260Z,71.95
2016-03-19T07:58:37.279Z,71.86
2016-03-19T07:59:37.329Z,71.91
2016-03-19T08:00:37.518Z,71.86
2016-03-19T08:01:37.334Z,71.95
2016-03-19T08:02:37.383Z,72.62
2016-03-19T08:03:37.385Z,72.71
2016-03-19T08:04:37.389Z,71.86
2016-03-19T08:05:37.626Z,71
2016-03-19T08:06:37.441Z,69.48
2016-03-19T08:07:37.459Z,69.57
2016-03-19T08:08:37.478Z,69.57
2016-03-19T08:09:37.495Z,70.14
2016-03-19T08:10:37.529Z,69.92
2016-03-19T08:11:37.517Z,69.95
2016-03-19T08:12:38.067Z,70.62
2016-03-19T08:13:37.695Z,71.28
2016-03-19T08:14:37.588Z,69.85
2016-03-19T08:15:37.622Z,69.85
2016-03-19T08:16:37.640Z,69.57
2016-03-19T08:17:37.689Z,69.73
2016-03-19T08:18:37.692Z,71.44
2016-03-19T08:19:37.742Z,72.77
2016-03-19T08:20:37.698Z,72.11
2016-03-19T08:21:37.731Z,71.06
2016-03-19T08:22:37.109Z,69.76
2016-03-19T08:23:37.800Z,70.05
2016-03-19T08:24:37.802Z,70.33
2016-03-19T08:25:37.805Z,69.67
2016-03-19T08:26:37.855Z,67.95
2016-03-19T08:27:37.842Z,67.19
2016-03-19T08:28:37.875Z,67.51
2016-03-19T08:29:37.924Z,67.89
2016-03-19T08:30:37.958Z,67.51
2016-03-19T08:31:37.946Z,67.03
2016-03-19T08:32:37.964Z,66.5
2016-03-19T08:33:38.577Z,67.07
2016-03-19T08:34:38.002Z,66.59
2016-03-19T08:35:38.019Z,65.83
2016-03-19T08:36:38.021Z,64.59
2016-03-19T08:37:38.056Z,63.29
2016-03-19T08:38:38.090Z,64.15
2016-03-19T08:39:50.842Z,62.81
2016-03-19T08:40:38.110Z,62.43
2016-03-19T08:42:03.817Z,59.51
2016-03-19T08:42:38.148Z,59.6
2016-03-19T08:44:09.540Z,58.36
2016-03-19T08:44:41.231Z,58.65
2016-03-19T08:45:38.234Z,57.98
2016-03-19T08:46:38.236Z,56.74
2016-03-19T08:47:38.254Z,57.31
2016-03-19T08:48:38.288Z,56.74
2016-03-19T08:49:38.292Z,56.74
2016-03-19T08:50:38.356Z,55.88
2016-03-19T08:51:51.077Z,56.07
2016-03-19T08:52:38.472Z,56.43
2016-03-19T08:53:57.583Z,57.19
2016-03-19T08:54:41.523Z,57.38
2016-03-19T08:55:41.510Z,56.62
2016-03-19T08:56:41.733Z,58.36
2016-03-19T08:58:00.750Z,59.12
2016-03-19T08:58:41.565Z,59.12
2016-03-19T08:59:41.600Z,58.26
2016-03-19T09:00:41.602Z,56.84
2016-03-19T09:01:41.636Z,57.31
2016-03-19T09:02:41.669Z,57.31
2016-03-19T09:03:41.672Z,57.41
2016-03-19T09:04:41.691Z,57.79
2016-03-19T09:05:41.974Z,58.52
2016-03-19T09:06:41.838Z,60.05
2016-03-19T09:07:41.902Z,59.54
2016-03-19T09:08:41.874Z,58.91
2016-03-19T09:09:54.532Z,58.52
2016-03-19T09:10:43.238Z,58.81
2016-03-19T09:11:41.897Z,59.38
2016-03-19T09:12:41.884Z,61.45
2016-03-19T09:13:41.870Z,61.54
2016-03-19T09:14:41.921Z,60.3
2016-03-19T09:15:41.923Z,62.02
2016-03-19T09:16:54.754Z,63.35
2016-03-19T09:17:42.101Z,63.32
2016-03-19T09:18:41.978Z,63.7
2016-03-19T09:19:42.012Z,64.84
2016-03-19T09:20:42.061Z,62.94
2016-03-19T09:22:01.284Z,63.32
2016-03-19T09:22:54.817Z,64.72
2016-03-19T09:24:07.789Z,66.97
2016-03-19T09:25:01.338Z,67.54
2016-03-19T09:26:13.685Z,65.48
2016-03-19T09:26:45.484Z,65.83
2016-03-19T09:28:48.724Z,65.86
2016-03-19T09:29:48.758Z,66.05
2016-03-19T09:30:48.995Z,65.48
2016-03-19T09:31:48.763Z,64.9
2016-03-19T09:32:48.797Z,64.9
2016-03-19T09:33:50.222Z,65
2016-03-19T09:34:48.834Z,65.67
2016-03-19T09:35:48.852Z,65.77
2016-03-19T09:36:48.871Z,64.81
2016-03-19T09:37:48.889Z,65.16
2016-03-19T09:38:48.938Z,65.64
2016-03-19T09:39:48.941Z,67.35
2016-03-19T09:40:48.944Z,67.44
2016-03-19T09:41:48.978Z,67.07
2016-03-19T09:42:48.996Z,65.83
2016-03-19T09:43:49.015Z,66.11
2016-03-19T09:44:49.032Z,65.92
2016-03-19T09:45:49.067Z,65.95
2016-03-19T09:47:01.834Z,64.9
2016-03-19T09:47:49.104Z,65.77
2016-03-19T09:48:49.168Z,65.77
2016-03-19T09:49:49.750Z,66.24
2016-03-19T09:50:49.268Z,65.86
2016-03-19T09:51:58.958Z,65.64
2016-03-19T09:52:58.976Z,65.54
2016-03-19T09:53:58.994Z,65.83
2016-03-19T09:54:59.013Z,65.45
2016-03-19T09:55:59.062Z,65.1
2016-03-19T09:56:59.096Z,63.96
2016-03-19T09:57:59.208Z,63.76
2016-03-19T09:58:59.102Z,63.67
2016-03-19T09:59:59.136Z,63.1
2016-03-19T10:00:59.170Z,63.57
2016-03-19T10:01:59.172Z,62.91
2016-03-19T10:02:59.175Z,63.01
2016-03-19T10:03:59.224Z,62.53
2016-03-19T10:04:59.243Z,63.01
2016-03-19T10:05:59.230Z,62.81
2016-03-19T10:06:59.296Z,61.42
2016-03-19T10:07:59.298Z,61.61
2016-03-19T10:08:59.332Z,62.18
2016-03-19T10:09:59.334Z,60.66
2016-03-19T10:10:59.337Z,61.61
2016-03-19T10:11:59.965Z,61.32
2016-03-19T10:13:12.499Z,61.61
2016-03-19T10:13:59.393Z,60.85
2016-03-19T10:14:59.428Z,59.99
2016-03-19T10:15:59.415Z,59.23
2016-03-19T10:17:05.683Z,59.1
2016-03-19T10:17:59.420Z,59.29
2016-03-19T10:18:59.453Z,59.23
2016-03-19T10:19:59.450Z,57.89
2016-03-19T10:20:59.462Z,57.89
2016-03-19T10:21:59.476Z,58.84
2016-03-19T10:22:59.489Z,57.8
2016-03-19T10:23:59.782Z,58.59
2016-03-19T10:24:59.532Z,59.74
2016-03-19T10:25:59.596Z,58.11
2016-03-19T10:26:59.566Z,58.02
2016-03-19T10:27:59.629Z,57.35
2016-03-19T10:28:59.615Z,57.16
2016-03-19T10:29:59.616Z,57.82
2016-03-19T10:30:59.649Z,57.64
2016-03-19T10:31:59.651Z,57.45
2016-03-19T10:32:59.700Z,58.02
2016-03-19T10:33:59.686Z,57.73
2016-03-19T10:34:59.720Z,58.11
2016-03-19T10:35:59.738Z,58.59
2016-03-19T10:36:59.771Z,59.83
2016-03-19T10:37:59.789Z,59.74
2016-03-19T10:38:59.823Z,58.21
2016-03-19T10:39:59.809Z,56.68
2016-03-19T10:40:59.812Z,55.85
2016-03-19T10:41:59.893Z,56.71
2016-03-19T10:42:59.864Z,55.92
2016-03-19T10:43:59.914Z,55.63
2016-03-19T10:44:59.917Z,55.73
2016-03-19T10:46:00.076Z,56.68
2016-03-19T10:46:59.969Z,55.83
2016-03-19T10:48:00.331Z,56.11
2016-03-19T10:49:00.005Z,55.73
2016-03-19T10:50:00.133Z,57.54
2016-03-19T10:51:12.793Z,57.99
2016-03-19T10:52:00.060Z,57.32
2016-03-19T10:53:00.094Z,57.99
2016-03-19T10:54:00.113Z,57.99
2016-03-19T10:55:00.132Z,58.08
2016-03-19T10:56:00.150Z,58.94
2016-03-19T10:57:00.152Z,58.28
2016-03-19T10:58:12.937Z,59.03
2016-03-19T10:59:00.220Z,58.65
2016-03-19T11:00:00.223Z,57.99
2016-03-19T11:01:00.273Z,57.89
2016-03-19T11:02:00.290Z,58.75
2016-03-19T11:03:00.356Z,59.32
2016-03-19T11:04:00.312Z,59.58
2016-03-19T11:05:00.345Z,59.8
2016-03-19T11:06:00.364Z,60.85
2016-03-19T11:07:00.382Z,60.46
2016-03-19T11:08:00.400Z,59.32
2016-03-19T11:09:00.434Z,60.85
2016-03-19T11:10:00.422Z,60.94
2016-03-19T11:11:00.456Z,59.99
2016-03-19T11:12:00.489Z,59.61
2016-03-19T11:13:00.508Z,58.65
2016-03-19T11:14:00.620Z,60.66
2016-03-19T11:15:00.544Z,60.27
2016-03-19T11:16:00.563Z,59.51
2016-03-19T11:17:06.847Z,61.61
2016-03-19T11:18:00.615Z,61.7
2016-03-19T11:19:00.633Z,59.8
2016-03-19T11:20:00.651Z,58.56
2016-03-19T11:21:00.655Z,58.28
2016-03-19T11:22:00.672Z,58.4
2016-03-19T11:23:00.707Z,58.3
2016-03-19T11:24:00.724Z,57.89
2016-03-19T11:25:00.727Z,58.3
2016-03-19T11:26:00.762Z,58.11
2016-03-19T11:27:13.514Z,57.26
2016-03-19T11:28:00.814Z,57.45
2016-03-19T11:29:00.832Z,57.54
2016-03-19T11:30:00.851Z,57.26
2016-03-19T11:31:00.868Z,57.89
2016-03-19T11:32:03.903Z,58.18
2016-03-19T11:33:00.889Z,58.65
2016-03-19T11:34:20.142Z,58.75
2016-03-19T11:35:00.973Z,59.16
2016-03-19T11:36:00.960Z,58.21
2016-03-19T11:37:01.026Z,57.99
2016-03-19T11:38:01.029Z,57.04
2016-03-19T11:39:01.031Z,57.45
2016-03-19T11:40:01.175Z,57.6
2016-03-19T11:41:01.083Z,56.97
2016-03-19T11:42:01.101Z,56.02
2016-03-19T11:43:01.103Z,56.87
2016-03-19T11:44:01.153Z,57.16
2016-03-19T11:45:01.171Z,57.07
2016-03-19T11:46:01.190Z,57.35
2016-03-19T11:47:01.037Z,56.78
2016-03-19T11:48:01.211Z,56.75
2016-03-19T11:49:01.245Z,59.51
2016-03-19T11:50:01.264Z,59.61
2016-03-19T11:51:04.188Z,57.04
2016-03-19T11:52:01.315Z,56.78
2016-03-19T11:53:01.381Z,58.4
2016-03-19T11:54:01.368Z,57.54
2016-03-19T11:55:01.386Z,55.44
2016-03-19T11:56:01.388Z,55.54
2016-03-19T11:57:01.438Z,54.61
2016-03-19T11:58:01.457Z,54.71
2016-03-19T11:59:01.475Z,55
2016-03-19T12:00:01.478Z,55.92
2016-03-19T12:01:01.512Z,56.62
2016-03-19T12:02:01.514Z,55.66
2016-03-19T12:03:14.268Z,56.87
2016-03-19T12:04:01.614Z,55.38
2016-03-19T12:05:27.257Z,55.47
2016-03-19T12:06:01.619Z,55.12
2016-03-19T12:07:01.622Z,53.88
2016-03-19T12:08:01.656Z,52.26
2016-03-19T12:09:01.517Z,51.31
2016-03-19T12:10:01.676Z,51.88
2016-03-19T12:11:01.711Z,52.64
2016-03-19T12:12:01.729Z,52.64
2016-03-19T12:13:01.842Z,52.16
2016-03-19T12:14:01.781Z,53.5
2016-03-19T12:15:01.800Z,53.41
2016-03-19T12:16:02.005Z,53.47
2016-03-19T12:17:01.836Z,55
2016-03-19T12:18:01.885Z,55.63
2016-03-19T12:19:01.873Z,55.73
2016-03-19T12:20:01.891Z,56.02
2016-03-19T12:21:01.925Z,55.73
2016-03-19T12:22:01.943Z,56.78
2016-03-19T12:23:01.961Z,55.35
2016-03-19T12:24:01.980Z,55.54
2016-03-19T12:25:02.014Z,56.3
2016-03-19T12:26:02.048Z,56.68
2016-03-19T12:27:02.034Z,57.54
2016-03-19T12:28:02.069Z,56.11
2016-03-19T12:29:02.087Z,56.4
2016-03-19T12:30:02.105Z,56.68
2016-03-19T12:31:02.140Z,54.68
2016-03-19T12:32:02.142Z,54.02
2016-03-19T12:33:02.176Z,54.8
2016-03-19T12:34:02.194Z,54.24
2016-03-19T12:35:02.213Z,54.8
2016-03-19T12:36:02.231Z,53.85
2016-03-19T12:37:02.264Z,53.38
2016-03-19T12:38:03.720Z,53.47
2016-03-19T12:39:02.317Z,54.26
2016-03-19T12:40:21.523Z,54.26
2016-03-19T12:41:05.401Z,53.31
2016-03-19T12:42:24.637Z,52.64
2016-03-19T12:43:05.453Z,52.52
2016-03-19T12:44:05.455Z,53.66
2016-03-19T12:45:18.225Z,52.33
2016-03-19T12:46:06.117Z,53.28
2016-03-19T12:47:05.525Z,54.04
2016-03-19T12:48:06.139Z,53.85
2016-03-19T12:49:06.188Z,52.42
2016-03-19T12:50:24.800Z,52.8
2016-03-19T12:51:18.350Z,53.38
2016-03-19T12:52:36.932Z,53.47
2016-03-19T12:53:20.838Z,53.21
2016-03-19T12:54:20.874Z,52.55
2016-03-19T12:55:20.876Z,51.78
2016-03-19T12:56:27.175Z,51.78
2016-03-19T12:57:20.912Z,50.73
2016-03-19T12:58:27.212Z,51.21
2016-03-19T12:59:20.965Z,51.43
2016-03-19T13:00:33.721Z,50.76
2016-03-19T13:01:27.268Z,50.28